Time;durP1;ratioP1;P1;durP2;ratioP2;P2;SDS_P1;SDS_P2;PMS_P1;PMS_P2;Temp;Humidity;BMP_temperature;BMP_pressure;BME280_temperature;BME280_humidity;BME280_pressure;Samples;Min_cycle;Max_cycle;Signal;HPM_P1;HPM_P2
2023/09/23 00:00:07;;;;;;;101.50;52.42;;;16.10;99.50;;;;;;4980592;28;92794;-45
2023/09/23 00:02:33;;;;;;;101.68;52.65;;;16.10;99.50;;;;;;4975682;28;92394;-46
2023/09/23 00:04:59;;;;;;;101.53;52.72;;;16.10;99.50;;;;;;4985784;28;90575;-48
2023/09/23 00:07:25;;;;;;;102.15;52.65;;;16.10;99.20;;;;;;4980903;28;93473;-45
2023/09/23 00:09:51;;;;;;;102.78;52.55;;;16.10;99.10;;;;;;4983204;28;90868;-47
2023/09/23 00:12:16;;;;;;;99.28;52.33;;;16.00;99.00;;;;;;4978567;28;93693;-45
2023/09/23 00:14:42;;;;;;;100.00;52.28;;;16.00;99.40;;;;;;4982443;28;91011;-46
2023/09/23 00:17:08;;;;;;;99.03;52.25;;;16.10;99.90;;;;;;4974657;28;93840;-45
2023/09/23 00:19:34;;;;;;;100.75;52.35;;;16.00;99.40;;;;;;4975921;22;90070;-44
2023/09/23 00:21:59;;;;;;;100.32;52.42;;;16.00;99.80;;;;;;4933787;28;90848;-48
2023/09/23 00:24:26;;;;;;;99.82;52.35;;;16.00;99.50;;;;;;4933858;28;90262;-46
2023/09/23 00:26:58;;;;;;;100.32;52.55;;;16.00;99.80;;;;;;4933402;28;92100;-45
2023/09/23 00:29:26;;;;;;;;;;;16.00;99.60;;;;;;4941900;28;91214;-44
2023/09/23 00:31:54;;;;;;;100.72;52.03;;;16.00;99.50;;;;;;4939748;28;90450;-46
2023/09/23 00:34:20;;;;;;;99.13;52.03;;;16.00;99.90;;;;;;4940978;28;89806;-44
2023/09/23 00:36:46;;;;;;;99.82;52.42;;;16.00;99.70;;;;;;4942704;28;89551;-45
2023/09/23 00:39:13;;;;;;;99.45;52.05;;;16.00;99.10;;;;;;4938042;28;91771;-44
2023/09/23 00:41:41;;;;;;;99.57;51.95;;;16.00;99.60;;;;;;4942444;28;89953;-45
2023/09/23 00:44:07;;;;;;;99.82;52.17;;;16.00;99.90;;;;;;4936179;28;89683;-45
2023/09/23 00:46:35;;;;;;;99.65;52.17;;;15.90;99.40;;;;;;4938345;28;90177;-44
2023/09/23 00:49:01;;;;;;;99.03;52.03;;;16.00;99.90;;;;;;4969463;22;93120;-73
2023/09/23 00:51:30;;;;;;;98.45;51.95;;;16.00;99.70;;;;;;4960255;28;90781;-74
2023/09/23 00:53:57;;;;;;;99.32;52.05;;;15.90;99.50;;;;;;4948361;28;90105;-75
2023/09/23 00:56:24;;;;;;;98.70;52.13;;;15.90;99.70;;;;;;4956349;28;90492;-73
2023/09/23 00:58:50;;;;;;;98.28;52.05;;;15.90;99.80;;;;;;4967167;28;91952;-75
2023/09/23 01:01:17;;;;;;;100.47;52.70;;;15.90;99.40;;;;;;4939717;28;89554;-75
2023/09/23 01:03:43;;;;;;;99.13;52.22;;;15.90;99.80;;;;;;4966688;28;89632;-77
2023/09/23 01:06:15;;;;;;;98.38;51.95;;;15.90;99.60;;;;;;4943188;28;89185;-76
2023/09/23 01:08:45;;;;;;;99.35;52.35;;;15.90;99.60;;;;;;4968328;28;90116;-76
2023/09/23 01:11:12;;;;;;;101.25;52.67;;;15.90;99.30;;;;;;4957197;28;89771;-77
2023/09/23 01:13:37;;;;;;;100.10;52.28;;;15.90;99.30;;;;;;4966938;28;88399;-74
2023/09/23 01:16:08;;;;;;;99.10;52.17;;;15.90;99.70;;;;;;4944683;28;91843;-77
2023/09/23 01:18:35;;;;;;;99.13;52.45;;;15.80;99.50;;;;;;4959542;28;90474;-74
2023/09/23 01:21:02;;;;;;;98.95;52.03;;;15.80;99.50;;;;;;4967135;28;90150;-74
2023/09/23 01:23:28;;;;;;;100.47;52.22;;;15.80;99.60;;;;;;4963472;28;93844;-75
2023/09/23 01:25:53;;;;;;;99.95;52.42;;;15.80;99.10;;;;;;4971999;28;89481;-77
2023/09/23 01:28:19;;;;;;;99.10;52.08;;;15.80;99.30;;;;;;4968250;28;90671;-78
2023/09/23 01:33:21;;;;;;;99.43;52.33;;;15.80;99.60;;;;;;4940713;28;91170;-49
2023/09/23 01:35:48;;;;;;;99.50;52.03;;;15.70;99.40;;;;;;4937780;28;90971;-46
2023/09/23 01:38:15;;;;;;;100.25;52.33;;;15.70;99.30;;;;;;4972427;22;89392;-75
2023/09/23 01:40:41;;;;;;;98.65;52.08;;;15.70;99.00;;;;;;4981432;28;89745;-73
2023/09/23 01:43:11;;;;;;;98.88;52.22;;;15.70;99.40;;;;;;4981886;28;88981;-74
2023/09/23 01:45:37;;;;;;;98.70;51.90;;;15.70;99.90;;;;;;4982843;22;92086;-43
2023/09/23 01:48:03;;;;;;;99.28;52.20;;;15.70;99.90;;;;;;4954067;28;90686;-43
2023/09/23 01:50:28;;;;;;;99.07;52.10;;;15.70;99.30;;;;;;4951312;28;90349;-44
2023/09/23 01:52:59;;;;;;;100.65;52.38;;;15.70;99.70;;;;;;4948951;28;89734;-43
2023/09/23 01:55:25;;;;;;;98.63;52.03;;;15.70;99.30;;;;;;4951536;28;90214;-43
2023/09/23 01:57:50;;;;;;;99.40;52.00;;;15.70;99.90;;;;;;4949586;28;90378;-44
2023/09/23 02:00:26;;;;;;;98.60;52.13;;;15.70;99.90;;;;;;4951119;28;90298;-45
2023/09/23 02:02:53;;;;;;;100.40;52.22;;;15.60;99.50;;;;;;4949469;28;93482;-44
2023/09/23 02:05:20;;;;;;;100.45;52.47;;;15.60;99.50;;;;;;4953652;28;94663;-43
2023/09/23 02:07:49;;;;;;;98.72;51.85;;;15.70;99.90;;;;;;4950124;28;90652;-46
2023/09/23 02:10:14;;;;;;;98.53;51.95;;;15.70;99.90;;;;;;4955364;28;91219;-44
2023/09/23 02:12:44;;;;;;;99.50;52.05;;;15.70;99.20;;;;;;4965030;22;94067;-76
2023/09/23 02:15:15;;;;;;;100.57;52.78;;;15.60;99.10;;;;;;4969926;28;90247;-75
2023/09/23 02:17:42;;;;;;;100.53;52.25;;;15.70;99.70;;;;;;4962699;28;90033;-76
2023/09/23 02:20:11;;;;;;;101.50;52.10;;;15.70;99.50;;;;;;4963362;28;89893;-78
2023/09/23 02:22:37;;;;;;;99.65;52.15;;;15.70;99.20;;;;;;4970080;28;90237;-77
2023/09/23 02:25:07;;;;;;;100.53;52.45;;;15.70;99.20;;;;;;4957273;28;90671;-76
2023/09/23 02:27:33;;;;;;;100.90;52.37;;;15.70;99.80;;;;;;4966152;28;89773;-75
2023/09/23 02:30:01;;;;;;;100.47;52.40;;;15.70;99.00;;;;;;4950296;28;94129;-79
2023/09/23 02:32:27;;;;;;;99.10;52.08;;;15.70;99.60;;;;;;4970136;28;89332;-75
2023/09/23 02:34:52;;;;;;;100.50;52.28;;;15.70;98.60;;;;;;4970591;28;90621;-76
2023/09/23 02:37:18;;;;;;;101.30;52.25;;;15.70;99.30;;;;;;4976147;22;89709;-45
2023/09/23 02:39:49;;;;;;;101.15;52.35;;;15.70;99.10;;;;;;4986608;28;90279;-43
2023/09/23 02:42:15;;;;;;;100.45;52.15;;;15.70;99.30;;;;;;4978857;28;91320;-44
2023/09/23 02:44:40;;;;;;;100.32;52.22;;;15.80;99.10;;;;;;4985658;28;90240;-43
2023/09/23 02:47:06;;;;;;;99.70;52.35;;;15.80;99.00;;;;;;4982573;28;90726;-44
2023/09/23 02:49:33;;;;;;;99.13;52.15;;;15.80;99.60;;;;;;4979472;28;90081;-43
2023/09/23 02:51:58;;;;;;;100.25;52.17;;;15.80;99.10;;;;;;4981000;28;90012;-44
2023/09/23 02:54:27;;;;;;;100.82;52.10;;;15.70;99.10;;;;;;4986623;28;90755;-44
2023/09/23 02:56:52;;;;;;;99.00;51.97;;;15.80;99.40;;;;;;4981745;28;90658;-43
2023/09/23 02:59:26;;;;;;;100.40;52.30;;;15.70;99.10;;;;;;4981992;28;92597;-44
2023/09/23 03:01:53;;;;;;;101.53;52.20;;;15.80;99.00;;;;;;4974801;28;90704;-45
2023/09/23 03:04:23;;;;;;;99.43;52.13;;;15.80;98.50;;;;;;4976133;28;89494;-45
2023/09/23 03:06:53;;;;;;;100.32;52.03;;;15.80;99.10;;;;;;4981872;28;89504;-43
2023/09/23 03:09:20;;;;;;;99.13;51.95;;;15.70;98.90;;;;;;4976925;28;90314;-44
2023/09/23 03:11:55;;;;;;;99.22;52.15;;;15.70;98.90;;;;;;4978956;28;89687;-43
2023/09/23 03:14:45;;;;;;;100.22;52.35;;;15.80;99.60;;;;;;4953453;22;91315;-78
2023/09/23 03:17:09;;;;;;;99.50;52.05;;;15.70;99.20;;;;;;4926315;28;89440;-76
2023/09/23 03:19:36;;;;;;;100.03;52.05;;;15.80;99.30;;;;;;4935765;28;89791;-75
2023/09/23 03:22:02;;;;;;;100.72;52.42;;;15.70;98.90;;;;;;4940321;28;89026;-74
2023/09/23 03:24:29;;;;;;;100.50;52.17;;;15.80;98.80;;;;;;4948911;28;91440;-76
2023/09/23 03:27:00;;;;;;;100.43;52.55;;;15.70;99.20;;;;;;4936393;28;90412;-75
2023/09/23 03:29:30;;;;;;;99.95;52.13;;;15.70;99.10;;;;;;4946180;28;93162;-77
2023/09/23 03:31:57;;;;;;;99.13;52.17;;;15.70;98.90;;;;;;4921008;28;91357;-75
2023/09/23 03:34:23;;;;;;;100.32;52.33;;;15.70;98.60;;;;;;4926345;28;92788;-77
2023/09/23 03:36:57;;;;;;;101.00;52.30;;;15.70;99.20;;;;;;4961982;22;89059;-46
2023/09/23 03:39:22;;;;;;;99.45;51.85;;;15.70;98.70;;;;;;4962691;28;90381;-52
2023/09/23 03:41:48;;;;;;;98.93;51.88;;;15.70;99.40;;;;;;4970485;28;92915;-46
2023/09/23 03:44:14;;;;;;;101.18;52.17;;;15.70;99.00;;;;;;4968942;28;89530;-48
2023/09/23 03:46:42;;;;;;;99.55;51.85;;;15.60;98.80;;;;;;4971918;28;91381;-45
2023/09/23 03:49:08;;;;;;;99.10;51.92;;;15.60;99.20;;;;;;4964642;28;94198;-48
2023/09/23 03:51:34;;;;;;;99.65;52.00;;;15.60;99.10;;;;;;4971306;28;91759;-47
2023/09/23 03:54:00;;;;;;;98.45;51.95;;;15.60;98.80;;;;;;4960021;28;90359;-48
2023/09/23 03:56:27;;;;;;;98.75;51.92;;;15.60;99.30;;;;;;4963594;28;89798;-46
2023/09/23 03:58:55;;;;;;;98.53;51.92;;;15.50;98.80;;;;;;4961240;28;90192;-47
2023/09/23 04:01:23;;;;;;;99.13;51.95;;;15.50;99.10;;;;;;4960462;28;92371;-47
2023/09/23 04:03:51;;;;;;;98.72;51.88;;;15.50;98.60;;;;;;4960350;28;90823;-46
2023/09/23 04:06:17;;;;;;;98.05;51.85;;;15.50;99.00;;;;;;4963466;28;89190;-46
2023/09/23 04:08:43;;;;;;;99.60;52.17;;;15.50;99.20;;;;;;4966838;28;89703;-47
2023/09/23 04:11:10;;;;;;;99.40;52.08;;;15.50;99.90;;;;;;4957198;28;91947;-48
2023/09/23 04:13:38;;;;;;;99.65;51.88;;;15.60;99.60;;;;;;4964504;28;90860;-47
2023/09/23 04:16:05;;;;;;;99.55;51.83;;;15.60;99.60;;;;;;4967431;28;94839;-46
2023/09/23 04:18:31;;;;;;;98.53;51.85;;;15.60;99.10;;;;;;4964663;28;90813;-44
2023/09/23 04:20:58;;;;;;;98.70;51.80;;;15.60;99.30;;;;;;4958545;28;90258;-46
2023/09/23 04:23:24;;;;;;;98.88;51.72;;;15.60;99.20;;;;;;4958489;28;90544;-48
2023/09/23 04:25:50;;;;;;;100.93;52.17;;;15.70;99.20;;;;;;4958645;28;90834;-48
2023/09/23 04:28:17;;;;;;;97.97;51.58;;;15.60;99.10;;;;;;4960521;28;89591;-49
2023/09/23 04:30:42;;;;;;;100.40;52.00;;;15.60;99.00;;;;;;4962912;28;91578;-48
2023/09/23 04:33:08;;;;;;;98.35;51.92;;;15.50;98.90;;;;;;4959455;28;92996;-46
2023/09/23 04:35:37;;;;;;;98.60;51.95;;;15.50;99.10;;;;;;4944223;28;91172;-46
2023/09/23 04:38:03;;;;;;;99.60;51.75;;;15.50;98.90;;;;;;4926789;28;91009;-45
2023/09/23 04:40:34;;;;;;;98.82;51.92;;;15.40;99.00;;;;;;4921181;28;89721;-47
2023/09/23 04:43:00;;;;;;;100.05;51.90;;;15.50;99.30;;;;;;4914139;28;91372;-49
2023/09/23 04:45:25;;;;;;;98.18;51.92;;;15.50;99.00;;;;;;4928393;28;90177;-45
2023/09/23 04:47:51;;;;;;;97.40;51.60;;;15.50;98.90;;;;;;4918586;28;91385;-43
2023/09/23 04:50:17;;;;;;;99.60;52.00;;;15.40;99.10;;;;;;4919821;28;90265;-43
2023/09/23 04:52:44;;;;;;;98.13;51.85;;;15.50;99.00;;;;;;4934152;22;91384;-76
2023/09/23 04:55:09;;;;;;;99.55;51.67;;;15.40;99.10;;;;;;4940801;28;89227;-76
2023/09/23 04:57:36;;;;;;;97.35;51.63;;;15.40;98.80;;;;;;4946215;28;89209;-76
2023/09/23 05:00:03;;;;;;;97.80;51.42;;;15.40;99.00;;;;;;4946451;28;90521;-73
2023/09/23 05:02:30;;;;;;;98.13;51.83;;;15.40;98.60;;;;;;4949710;28;91089;-79
2023/09/23 05:04:55;;;;;;;98.72;51.85;;;15.40;99.10;;;;;;4947568;28;90727;-74
2023/09/23 05:07:25;;;;;;;99.38;51.80;;;15.40;99.50;;;;;;4935639;28;89205;-76
2023/09/23 05:09:51;;;;;;;98.28;51.92;;;15.40;98.90;;;;;;4955078;28;90430;-75
2023/09/23 05:12:17;;;;;;;97.88;51.70;;;15.30;98.80;;;;;;4959634;28;89538;-74
2023/09/23 05:14:43;;;;;;;98.38;51.90;;;15.30;98.90;;;;;;4948872;28;89111;-77
2023/09/23 05:17:15;;;;;;;97.53;51.70;;;15.30;99.20;;;;;;4955033;28;89039;-75
2023/09/23 05:19:47;;;;;;;97.60;51.78;;;15.30;98.70;;;;;;4956352;22;89178;-44
2023/09/23 05:22:13;;;;;;;96.65;51.40;;;15.30;98.80;;;;;;4905074;28;89925;-45
2023/09/23 05:24:39;;;;;;;98.28;51.83;;;15.30;99.10;;;;;;4915942;28;89479;-43
2023/09/23 05:27:05;;;;;;;97.63;52.05;;;15.30;99.30;;;;;;4912147;28;91085;-43
2023/09/23 05:29:31;;;;;;;96.20;51.45;;;15.30;98.60;;;;;;4915037;28;90067;-43
2023/09/23 05:31:57;;;;;;;97.03;51.95;;;15.30;99.40;;;;;;4909133;28;90261;-43
2023/09/23 05:34:22;;;;;;;97.40;51.70;;;15.20;99.00;;;;;;4910654;28;90187;-44
2023/09/23 05:36:48;;;;;;;97.82;51.78;;;15.30;98.90;;;;;;4910879;28;91327;-43
2023/09/23 05:39:18;;;;;;;99.70;52.03;;;15.20;99.00;;;;;;4911906;28;89992;-43
2023/09/23 05:41:44;;;;;;;98.13;52.00;;;15.30;99.90;;;;;;4912754;28;90310;-45
2023/09/23 05:44:12;;;;;;;96.22;51.63;;;15.20;98.30;;;;;;4914503;28;89985;-43
2023/09/23 05:46:38;;;;;;;97.35;51.83;;;15.20;99.00;;;;;;4921235;28;90285;-42
2023/09/23 05:49:05;;;;;;;98.35;51.88;;;15.30;98.90;;;;;;4913746;28;89835;-43
2023/09/23 05:51:33;;;;;;;97.53;51.97;;;15.30;98.80;;;;;;4915928;28;91895;-44
2023/09/23 05:54:02;;;;;;;96.90;51.53;;;15.20;99.20;;;;;;4912274;28;91431;-44
2023/09/23 05:56:27;;;;;;;97.75;51.63;;;15.20;98.70;;;;;;4912073;28;90613;-45
2023/09/23 05:58:53;;;;;;;98.32;51.88;;;15.30;98.90;;;;;;4909650;28;90925;-43
2023/09/23 06:01:19;;;;;;;98.55;52.05;;;15.30;99.00;;;;;;4900571;28;90561;-43
2023/09/23 06:03:44;;;;;;;98.07;51.58;;;15.30;98.70;;;;;;4897784;28;91327;-44
2023/09/23 06:06:11;;;;;;;98.47;51.95;;;15.30;98.70;;;;;;4908429;28;89350;-43
2023/09/23 06:08:39;;;;;;;97.97;51.80;;;15.30;99.00;;;;;;4912399;28;90735;-44
2023/09/23 06:11:05;;;;;;;97.18;51.95;;;15.30;98.70;;;;;;4910608;28;91889;-43
2023/09/23 06:13:34;;;;;;;98.18;51.75;;;15.30;98.50;;;;;;4908440;28;90277;-42
2023/09/23 06:16:04;;;;;;;97.15;52.15;;;15.20;98.50;;;;;;4914857;28;90784;-44
2023/09/23 06:18:30;;;;;;;97.95;51.78;;;15.20;98.60;;;;;;4914312;28;90475;-43
2023/09/23 06:20:59;;;;;;;97.05;51.78;;;15.30;98.80;;;;;;4904652;28;89542;-45
2023/09/23 06:23:25;;;;;;;98.65;52.00;;;15.30;98.50;;;;;;4904981;28;92386;-42
2023/09/23 06:25:54;;;;;;;97.00;51.67;;;15.20;98.60;;;;;;4905448;28;93067;-43
2023/09/23 06:28:24;;;;;;;96.97;52.08;;;15.30;98.80;;;;;;4909174;28;91944;-42
2023/09/23 06:30:50;;;;;;;97.40;51.88;;;15.20;98.40;;;;;;4909008;28;90072;-42
2023/09/23 06:33:16;;;;;;;97.10;52.05;;;15.20;98.90;;;;;;4914046;28;90296;-42
2023/09/23 06:35:42;;;;;;;97.35;51.85;;;15.30;98.70;;;;;;4895706;28;90197;-42
2023/09/23 06:38:07;;;;;;;98.40;52.03;;;15.30;98.80;;;;;;4905514;28;90621;-44
2023/09/23 06:40:33;;;;;;;98.38;51.90;;;15.30;98.80;;;;;;4907774;28;92462;-41
2023/09/23 06:42:59;;;;;;;97.38;51.70;;;15.30;99.00;;;;;;4905297;28;90378;-42
2023/09/23 06:45:24;;;;;;;98.53;52.05;;;15.40;98.90;;;;;;4913082;28;89695;-43
2023/09/23 06:47:50;;;;;;;99.72;52.10;;;15.40;98.60;;;;;;4898958;28;91818;-42
2023/09/23 06:50:16;;;;;;;98.40;52.00;;;15.40;98.90;;;;;;4908939;28;90004;-45
2023/09/23 06:52:42;;;;;;;99.65;52.42;;;15.40;99.00;;;;;;4928919;22;90948;-77
2023/09/23 06:55:08;;;;;;;97.75;52.53;;;15.40;98.70;;;;;;4925795;28;90463;-78
2023/09/23 06:57:36;;;;;;;98.60;52.60;;;15.40;98.20;;;;;;4943957;28;89203;-77
2023/09/23 07:00:06;;;;;;;100.00;52.35;;;15.40;98.70;;;;;;4939832;28;92476;-79
2023/09/23 07:02:32;;;;;;;98.13;52.45;;;15.50;99.10;;;;;;4937800;28;94437;-77
2023/09/23 07:04:57;;;;;;;97.88;52.60;;;15.50;98.70;;;;;;4937356;28;90874;-78
2023/09/23 07:07:23;;;;;;;98.00;52.35;;;15.50;98.70;;;;;;4939381;28;89620;-77
2023/09/23 07:09:48;;;;;;;99.22;52.80;;;15.50;99.30;;;;;;4936518;28;89722;-78
2023/09/23 07:12:14;;;;;;;98.90;52.53;;;15.60;98.60;;;;;;4940201;28;92275;-78
2023/09/23 07:14:41;;;;;;;98.63;52.47;;;15.60;98.70;;;;;;4940966;28;89990;-78
2023/09/23 07:17:06;;;;;;;99.20;52.53;;;15.70;98.80;;;;;;4936396;28;90304;-77
2023/09/23 07:19:35;;;;;;;98.47;52.08;;;15.60;98.50;;;;;;4923052;28;94465;-77
2023/09/23 07:22:02;;;;;;;97.72;52.25;;;15.60;99.00;;;;;;4916583;28;90590;-77
2023/09/23 07:24:29;;;;;;;98.55;52.53;;;15.70;98.30;;;;;;4916699;28;90760;-81
2023/09/23 07:26:58;;;;;;;97.97;52.22;;;15.70;98.90;;;;;;4917930;28;89473;-78
2023/09/23 07:29:24;;;;;;;97.97;52.50;;;15.70;98.80;;;;;;4918121;28;94184;-82
2023/09/23 07:31:50;;;;;;;96.55;52.03;;;15.70;98.50;;;;;;4913191;28;91801;-78
2023/09/23 07:34:15;;;;;;;100.47;52.42;;;15.70;97.80;;;;;;4905376;28;89696;-78
2023/09/23 07:36:42;;;;;;;99.95;52.35;;;15.70;98.30;;;;;;4923462;28;89839;-78
2023/09/23 07:39:08;;;;;;;99.10;52.33;;;15.70;98.20;;;;;;4915402;28;91460;-78
2023/09/23 07:41:34;;;;;;;99.22;52.35;;;15.70;97.80;;;;;;4918182;28;90231;-78
2023/09/23 07:43:59;;;;;;;97.97;52.70;;;15.70;98.70;;;;;;4920528;28;90682;-77
2023/09/23 07:46:25;;;;;;;100.38;52.83;;;15.70;98.30;;;;;;4923816;28;88986;-77
2023/09/23 07:48:51;;;;;;;97.85;52.50;;;15.70;97.90;;;;;;4918198;28;93591;-77
2023/09/23 07:51:16;;;;;;;98.50;52.38;;;15.70;98.00;;;;;;4921252;28;91164;-78
2023/09/23 07:53:42;;;;;;;98.15;52.47;;;15.70;97.90;;;;;;4926853;28;91223;-78
2023/09/23 07:56:09;;;;;;;97.97;52.45;;;15.80;98.60;;;;;;4942945;28;91128;-78
2023/09/23 07:58:35;;;;;;;101.63;52.63;;;15.80;98.10;;;;;;4938272;28;89817;-78
2023/09/23 08:01:01;;;;;;;98.88;52.47;;;15.90;98.20;;;;;;4945716;28;90346;-77
2023/09/23 08:03:27;;;;;;;98.68;52.80;;;15.90;98.20;;;;;;4918349;28;89725;-78
2023/09/23 08:05:53;;;;;;;99.30;52.25;;;15.90;97.90;;;;;;4943949;28;90270;-78
2023/09/23 08:08:19;;;;;;;99.38;52.35;;;15.80;97.70;;;;;;4935685;28;90232;-78
2023/09/23 08:10:45;;;;;;;98.20;52.42;;;15.90;97.80;;;;;;4947998;28;91240;-79
2023/09/23 08:13:11;;;;;;;99.88;52.60;;;15.90;97.80;;;;;;4921387;28;90454;-78
2023/09/23 08:15:37;;;;;;;97.80;52.35;;;16.00;97.90;;;;;;4935351;28;89986;-79
2023/09/23 08:18:03;;;;;;;98.97;52.55;;;16.00;97.90;;;;;;4934913;28;92700;-78
2023/09/23 08:20:29;;;;;;;98.55;52.60;;;16.00;98.10;;;;;;4934087;28;90451;-77
2023/09/23 08:22:55;;;;;;;98.60;52.50;;;16.10;97.50;;;;;;4940091;28;89764;-78
2023/09/23 08:25:20;;;;;;;98.32;52.60;;;16.10;97.00;;;;;;4939364;28;91271;-78
2023/09/23 08:27:46;;;;;;;99.53;52.70;;;16.10;97.10;;;;;;4938547;28;90639;-78
2023/09/23 08:30:16;;;;;;;98.75;52.63;;;16.20;97.50;;;;;;4933857;28;90343;-78
2023/09/23 08:32:41;;;;;;;101.93;52.67;;;16.20;97.40;;;;;;4932697;28;95565;-78
2023/09/23 08:35:08;;;;;;;98.85;52.92;;;16.20;97.10;;;;;;4933477;28;90548;-78
2023/09/23 08:37:35;;;;;;;100.35;52.67;;;16.30;96.40;;;;;;4935273;28;90940;-78
2023/09/23 08:40:01;;;;;;;99.93;52.63;;;16.40;95.70;;;;;;4933718;28;90781;-79
2023/09/23 08:42:27;;;;;;;100.28;52.60;;;16.40;95.40;;;;;;4931991;28;92040;-78
2023/09/23 08:44:54;;;;;;;101.22;52.80;;;16.50;95.10;;;;;;4936560;28;90413;-79
2023/09/23 08:47:20;;;;;;;100.85;52.85;;;16.50;94.90;;;;;;4921116;28;93121;-82
2023/09/23 08:49:49;;;;;;;100.13;52.63;;;16.60;95.70;;;;;;4925309;28;94304;-78
2023/09/23 08:52:20;;;;;;;101.20;52.72;;;16.80;95.20;;;;;;4918198;28;92818;-77
2023/09/23 08:54:49;;;;;;;100.65;52.85;;;16.90;95.50;;;;;;4937392;28;90847;-78
2023/09/23 08:57:19;;;;;;;100.90;53.05;;;17.00;95.90;;;;;;4930323;28;91873;-77
2023/09/23 08:59:45;;;;;;;102.07;53.20;;;17.00;94.00;;;;;;4937301;28;90493;-77
2023/09/23 09:02:20;;;;;;;101.57;52.90;;;16.90;94.20;;;;;;4938742;28;90138;-79
2023/09/23 09:04:45;;;;;;;103.53;53.22;;;16.90;95.30;;;;;;4933243;28;90309;-79
2023/09/23 09:07:11;;;;;;;102.03;53.63;;;16.90;93.90;;;;;;4943203;28;91542;-78
2023/09/23 09:09:37;;;;;;;103.85;53.33;;;16.90;94.50;;;;;;4939236;28;91336;-79
2023/09/23 09:12:05;;;;;;;101.68;53.03;;;17.00;94.50;;;;;;4915582;28;91243;-79
2023/09/23 09:14:33;;;;;;;102.95;53.17;;;17.00;94.90;;;;;;4936694;28;90883;-80
2023/09/23 09:16:59;;;;;;;106.03;53.15;;;17.10;94.10;;;;;;4930805;28;93701;-80
2023/09/23 09:19:25;;;;;;;102.13;53.28;;;17.20;95.40;;;;;;4938263;28;92295;-78
2023/09/23 09:21:51;;;;;;;102.15;53.20;;;17.20;94.50;;;;;;4904933;28;91357;-78
2023/09/23 09:24:17;;;;;;;102.85;53.17;;;17.20;93.70;;;;;;4921767;28;90576;-78
2023/09/23 09:26:44;;;;;;;100.78;53.05;;;17.20;93.90;;;;;;4934468;28;90502;-79
2023/09/23 09:29:10;;;;;;;105.07;53.13;;;17.20;94.40;;;;;;4936243;28;90631;-78
2023/09/23 09:31:38;;;;;;;106.32;53.00;;;17.20;93.00;;;;;;4917474;28;91147;-80
2023/09/23 09:34:08;;;;;;;102.28;53.17;;;17.30;93.50;;;;;;4936725;28;91089;-79
2023/09/23 09:36:40;;;;;;;102.72;53.08;;;17.30;92.80;;;;;;4935793;28;92527;-80
2023/09/23 09:39:08;;;;;;;102.25;53.22;;;17.40;93.90;;;;;;4924414;28;94659;-79
2023/09/23 09:41:46;;;;;;;104.60;53.53;;;17.40;93.20;;;;;;4917590;28;92153;-79
2023/09/23 09:44:15;;;;;;;102.78;53.33;;;17.40;92.80;;;;;;4935550;28;90234;-79
2023/09/23 09:46:42;;;;;;;107.50;53.33;;;17.40;92.90;;;;;;4935140;28;90837;-78
2023/09/23 09:49:09;;;;;;;104.38;53.63;;;17.40;92.60;;;;;;4941965;28;90841;-78
2023/09/23 09:51:35;;;;;;;107.30;53.70;;;17.60;93.30;;;;;;4939389;28;90641;-79
2023/09/23 09:54:04;;;;;;;102.95;53.17;;;17.50;92.60;;;;;;4928119;28;90158;-78
2023/09/23 09:56:30;;;;;;;105.28;53.78;;;17.60;92.90;;;;;;4915155;28;93426;-79
2023/09/23 09:58:59;;;;;;;101.90;53.33;;;17.60;92.40;;;;;;4925880;28;94037;-79
2023/09/23 10:01:24;;;;;;;104.20;53.75;;;17.60;92.50;;;;;;4919575;28;95054;-78
2023/09/23 10:03:53;;;;;;;103.63;53.45;;;17.70;93.10;;;;;;4923879;28;90909;-79
2023/09/23 10:06:21;;;;;;;103.38;53.67;;;17.70;92.00;;;;;;4914990;28;91692;-79
2023/09/23 10:08:51;;;;;;;105.68;53.58;;;17.80;92.10;;;;;;4900760;28;94059;-80
2023/09/23 10:11:28;;;;;;;103.20;53.38;;;17.80;91.80;;;;;;4924366;28;89598;-79
2023/09/23 10:13:54;;;;;;;102.95;53.42;;;17.80;91.90;;;;;;4920349;28;89515;-78
2023/09/23 10:16:27;;;;;;;103.30;53.55;;;17.90;91.30;;;;;;4922923;28;91357;-79
2023/09/23 10:18:57;;;;;;;103.72;53.60;;;17.90;91.90;;;;;;4917330;28;90022;-79
2023/09/23 10:21:24;;;;;;;102.22;53.33;;;17.90;90.90;;;;;;4927219;28;91884;-77
2023/09/23 10:23:52;;;;;;;103.97;53.85;;;18.00;91.10;;;;;;4921887;28;91168;-78
2023/09/23 10:26:19;;;;;;;103.95;53.47;;;18.00;91.30;;;;;;4905542;28;93334;-79
2023/09/23 10:29:01;;;;;;;103.28;53.55;;;18.00;91.20;;;;;;4924306;28;91488;-78
2023/09/23 10:31:29;;;;;;;104.25;53.53;;;18.00;91.30;;;;;;4920226;28;90355;-79
2023/09/23 10:33:55;;;;;;;107.22;54.35;;;18.00;90.80;;;;;;4923085;28;89677;-77
2023/09/23 10:36:22;;;;;;;111.70;54.70;;;18.00;90.80;;;;;;4916782;28;94000;-80
2023/09/23 10:38:48;;;;;;;112.70;54.90;;;18.10;91.80;;;;;;4908358;28;89702;-81
2023/09/23 10:41:14;;;;;;;109.13;54.88;;;18.20;90.80;;;;;;4915456;28;89391;-81
2023/09/23 10:43:40;;;;;;;107.35;55.05;;;18.30;90.80;;;;;;4915269;28;90375;-81
2023/09/23 10:46:06;;;;;;;113.15;55.35;;;18.40;90.70;;;;;;4893851;28;94843;-80
2023/09/23 10:48:32;;;;;;;113.35;55.50;;;18.50;90.70;;;;;;4910194;28;96639;-80
2023/09/23 10:51:03;;;;;;;109.75;55.75;;;18.50;91.30;;;;;;4911805;28;91200;-80
2023/09/23 10:53:29;;;;;;;114.95;56.13;;;18.40;90.70;;;;;;4912236;28;90251;-78
2023/09/23 10:56:02;;;;;;;120.53;56.80;;;18.40;91.90;;;;;;4933158;28;90935;-80
2023/09/23 10:58:31;;;;;;;111.45;56.40;;;18.50;92.40;;;;;;4925073;28;91474;-80
2023/09/23 11:00:57;;;;;;;114.05;56.53;;;18.60;92.20;;;;;;4933939;28;91241;-78
2023/09/23 11:03:23;;;;;;;113.70;56.20;;;18.70;92.20;;;;;;4929604;28;91517;-78
2023/09/23 11:05:49;;;;;;;124.25;57.50;;;18.70;92.50;;;;;;4929504;28;90602;-80
2023/09/23 11:08:18;;;;;;;115.13;56.60;;;18.70;92.30;;;;;;4933596;28;89578;-80
2023/09/23 11:10:48;;;;;;;120.75;57.33;;;18.80;91.30;;;;;;4924451;28;91343;-78
2023/09/23 11:13:15;;;;;;;113.20;56.13;;;18.90;91.80;;;;;;4934736;28;89581;-78
2023/09/23 11:15:44;;;;;;;115.35;56.80;;;18.80;91.20;;;;;;4928749;28;91684;-80
2023/09/23 11:18:13;;;;;;;115.78;56.65;;;18.90;90.60;;;;;;4930067;28;92507;-80
2023/09/23 11:20:43;;;;;;;114.65;57.30;;;18.90;91.00;;;;;;4927704;28;91590;-81
2023/09/23 11:23:10;;;;;;;121.95;58.30;;;18.90;91.30;;;;;;4925783;28;91953;-81
2023/09/23 11:25:36;;;;;;;114.72;56.50;;;18.90;91.50;;;;;;4931670;28;89608;-81
2023/09/23 11:28:02;;;;;;;117.65;57.72;;;18.90;91.20;;;;;;4930724;28;89780;-81
2023/09/23 11:30:28;;;;;;;127.85;59.30;;;18.90;91.20;;;;;;4938358;28;91866;-84
2023/09/23 11:32:55;;;;;;;117.22;57.00;;;19.00;92.20;;;;;;4930233;28;90157;-82
2023/09/23 11:35:22;;;;;;;123.18;58.72;;;19.00;91.40;;;;;;4945510;28;91963;-83
2023/09/23 11:37:49;;;;;;;121.75;58.17;;;19.10;92.30;;;;;;4946509;28;90882;-83
2023/09/23 11:40:15;;;;;;;116.72;56.00;;;19.10;92.30;;;;;;4936508;28;93995;-81
2023/09/23 11:42:41;;;;;;;110.70;54.55;;;19.00;81.60;;;;;;4950041;28;89382;-81
2023/09/23 11:45:08;;;;;;;111.75;56.13;;;18.70;72.00;;;;;;4967949;28;89866;-80
2023/09/23 11:47:33;;;;;;;113.35;55.22;;;18.80;81.90;;;;;;4971460;28;89843;-80
2023/09/23 11:49:59;;;;;;;112.00;56.15;;;18.80;77.10;;;;;;4966847;28;90829;-80
2023/09/23 11:52:25;;;;;;;108.50;54.97;;;18.70;78.60;;;;;;4950569;28;89474;-83
2023/09/23 11:54:50;;;;;;;110.75;54.85;;;18.80;72.90;;;;;;4937855;28;93519;-83
2023/09/23 11:57:16;;;;;;;108.05;55.10;;;18.70;72.00;;;;;;4934450;28;90964;-83
2023/09/23 11:59:42;;;;;;;106.90;54.40;;;18.70;75.80;;;;;;4937234;28;90826;-83
2023/09/23 12:02:08;;;;;;;107.93;54.97;;;18.80;74.30;;;;;;4930472;28;89475;-83
2023/09/23 12:04:34;;;;;;;111.25;55.63;;;19.00;74.30;;;;;;4935300;28;91564;-81
2023/09/23 12:07:00;;;;;;;108.80;54.88;;;19.00;74.70;;;;;;4929036;28;94672;-82
2023/09/23 12:09:27;;;;;;;112.10;55.72;;;19.00;73.10;;;;;;4936188;28;90111;-81
2023/09/23 12:11:53;;;;;;;105.63;54.35;;;19.10;75.90;;;;;;4934366;28;90066;-81
2023/09/23 12:14:19;;;;;;;108.20;54.85;;;19.10;72.80;;;;;;4930226;28;90046;-81
2023/09/23 12:16:45;;;;;;;106.40;54.75;;;19.00;70.90;;;;;;4942206;28;92914;-81
2023/09/23 12:19:11;;;;;;;106.47;54.72;;;19.10;70.90;;;;;;4927285;28;90816;-81
2023/09/23 12:21:37;;;;;;;106.93;54.72;;;19.00;67.90;;;;;;4934908;28;89671;-81
2023/09/23 12:24:03;;;;;;;107.57;54.58;;;19.00;72.50;;;;;;4933669;28;94801;-82